sensor_id;sensor_type;location;lat;lon;timestamp;P1;durP1;ratioP1;P2;durP2;ratioP2
8482;SDS011;4278;42.668;23.312;2023-02-11T00:01:18;28.93;;;9.93;;
8482;SDS011;4278;42.668;23.312;2023-02-11T00:03:46;24.50;;;9.20;;
8482;SDS011;4278;42.668;23.312;2023-02-11T00:06:13;26.67;;;9.40;;
8482;SDS011;4278;42.668;23.312;2023-02-11T00:08:42;30.80;;;10.80;;
8482;SDS011;4278;42.668;23.312;2023-02-11T00:11:11;26.43;;;9.40;;
8482;SDS011;4278;42.668;23.312;2023-02-11T00:13:38;25.40;;;9.23;;
8482;SDS011;4278;42.668;23.312;2023-02-11T00:16:05;28.90;;;9.00;;
8482;SDS011;4278;42.668;23.312;2023-02-11T00:18:33;19.73;;;8.00;;
8482;SDS011;4278;42.668;23.312;2023-02-11T00:21:04;24.37;;;8.27;;
8482;SDS011;4278;42.668;23.312;2023-02-11T00:23:31;30.70;;;9.60;;
8482;SDS011;4278;42.668;23.312;2023-02-11T00:26:00;23.83;;;10.13;;
8482;SDS011;4278;42.668;23.312;2023-02-11T00:28:27;25.17;;;8.67;;
8482;SDS011;4278;42.668;23.312;2023-02-11T00:30:54;23.33;;;9.13;;
8482;SDS011;4278;42.668;23.312;2023-02-11T00:33:21;21.67;;;8.20;;
8482;SDS011;4278;42.668;23.312;2023-02-11T00:35:48;27.37;;;10.57;;
8482;SDS011;4278;42.668;23.312;2023-02-11T00:38:15;25.20;;;9.57;;
8482;SDS011;4278;42.668;23.312;2023-02-11T00:40:41;22.90;;;9.30;;
8482;SDS011;4278;42.668;23.312;2023-02-11T00:43:10;32.17;;;10.47;;
8482;SDS011;4278;42.668;23.312;2023-02-11T00:45:37;23.87;;;9.07;;
8482;SDS011;4278;42.668;23.312;2023-02-11T00:48:03;19.03;;;7.67;;
8482;SDS011;4278;42.668;23.312;2023-02-11T00:50:30;25.30;;;8.40;;
8482;SDS011;4278;42.668;23.312;2023-02-11T00:52:57;26.97;;;10.17;;
8482;SDS011;4278;42.668;23.312;2023-02-11T00:55:24;23.70;;;9.17;;
8482;SDS011;4278;42.668;23.312;2023-02-11T00:57:51;26.43;;;9.97;;
8482;SDS011;4278;42.668;23.312;2023-02-11T01:00:19;28.63;;;10.13;;
8482;SDS011;4278;42.668;23.312;2023-02-11T01:02:46;29.90;;;9.43;;
8482;SDS011;4278;42.668;23.312;2023-02-11T01:05:13;24.13;;;8.53;;
8482;SDS011;4278;42.668;23.312;2023-02-11T01:07:40;23.53;;;8.40;;
8482;SDS011;4278;42.668;23.312;2023-02-11T01:10:06;31.53;;;9.93;;
8482;SDS011;4278;42.668;23.312;2023-02-11T01:12:34;26.60;;;8.43;;
8482;SDS011;4278;42.668;23.312;2023-02-11T01:15:01;24.53;;;8.87;;
8482;SDS011;4278;42.668;23.312;2023-02-11T01:17:30;19.90;;;7.83;;
8482;SDS011;4278;42.668;23.312;2023-02-11T01:19:57;20.30;;;7.47;;
8482;SDS011;4278;42.668;23.312;2023-02-11T01:22:24;23.63;;;8.37;;
8482;SDS011;4278;42.668;23.312;2023-02-11T01:24:50;20.47;;;8.53;;
8482;SDS011;4278;42.668;23.312;2023-02-11T01:27:17;21.43;;;8.13;;
8482;SDS011;4278;42.668;23.312;2023-02-11T01:29:44;25.93;;;9.43;;
8482;SDS011;4278;42.668;23.312;2023-02-11T01:32:11;35.23;;;11.40;;
8482;SDS011;4278;42.668;23.312;2023-02-11T01:34:39;25.87;;;9.03;;
8482;SDS011;4278;42.668;23.312;2023-02-11T01:37:06;24.97;;;8.87;;
8482;SDS011;4278;42.668;23.312;2023-02-11T01:39:33;29.27;;;9.77;;
8482;SDS011;4278;42.668;23.312;2023-02-11T01:42:00;24.17;;;9.27;;
8482;SDS011;4278;42.668;23.312;2023-02-11T01:44:29;24.53;;;9.27;;
8482;SDS011;4278;42.668;23.312;2023-02-11T01:46:57;23.87;;;9.63;;
8482;SDS011;4278;42.668;23.312;2023-02-11T01:49:26;24.90;;;9.43;;
8482;SDS011;4278;42.668;23.312;2023-02-11T01:51:57;31.07;;;9.93;;
8482;SDS011;4278;42.668;23.312;2023-02-11T01:54:27;23.00;;;9.30;;
8482;SDS011;4278;42.668;23.312;2023-02-11T01:57:15;26.60;;;9.60;;
8482;SDS011;4278;42.668;23.312;2023-02-11T01:59:49;24.03;;;9.40;;
8482;SDS011;4278;42.668;23.312;2023-02-11T02:02:25;24.97;;;9.23;;
8482;SDS011;4278;42.668;23.312;2023-02-11T02:04:59;24.70;;;8.77;;
8482;SDS011;4278;42.668;23.312;2023-02-11T02:07:33;23.37;;;9.30;;
8482;SDS011;4278;42.668;23.312;2023-02-11T02:10:06;25.80;;;10.70;;
8482;SDS011;4278;42.668;23.312;2023-02-11T02:12:37;26.03;;;9.07;;
8482;SDS011;4278;42.668;23.312;2023-02-11T02:17:56;23.83;;;8.80;;
8482;SDS011;4278;42.668;23.312;2023-02-11T02:23:47;23.90;;;8.83;;
8482;SDS011;4278;42.668;23.312;2023-02-11T02:32:32;23.13;;;9.47;;
8482;SDS011;4278;42.668;23.312;2023-02-11T02:35:08;21.43;;;9.00;;
8482;SDS011;4278;42.668;23.312;2023-02-11T02:37:42;20.10;;;8.20;;
8482;SDS011;4278;42.668;23.312;2023-02-11T02:40:14;28.43;;;9.03;;
8482;SDS011;4278;42.668;23.312;2023-02-11T02:42:45;25.77;;;9.23;;
8482;SDS011;4278;42.668;23.312;2023-02-11T02:45:14;23.77;;;8.53;;
8482;SDS011;4278;42.668;23.312;2023-02-11T02:47:43;20.30;;;8.30;;
8482;SDS011;4278;42.668;23.312;2023-02-11T02:50:10;32.63;;;10.30;;
8482;SDS011;4278;42.668;23.312;2023-02-11T02:52:41;26.97;;;8.80;;
8482;SDS011;4278;42.668;23.312;2023-02-11T02:55:25;28.57;;;9.30;;
8482;SDS011;4278;42.668;23.312;2023-02-11T02:58:19;27.03;;;9.77;;
8482;SDS011;4278;42.668;23.312;2023-02-11T03:01:09;28.37;;;9.77;;
8482;SDS011;4278;42.668;23.312;2023-02-11T03:03:49;26.57;;;9.17;;
8482;SDS011;4278;42.668;23.312;2023-02-11T03:06:25;23.77;;;9.30;;
8482;SDS011;4278;42.668;23.312;2023-02-11T03:08:58;26.40;;;9.27;;
8482;SDS011;4278;42.668;23.312;2023-02-11T03:11:31;34.10;;;11.07;;
8482;SDS011;4278;42.668;23.312;2023-02-11T03:14:00;20.63;;;8.67;;
8482;SDS011;4278;42.668;23.312;2023-02-11T03:16:29;25.87;;;9.87;;
8482;SDS011;4278;42.668;23.312;2023-02-11T03:19:04;18.73;;;8.47;;
8482;SDS011;4278;42.668;23.312;2023-02-11T03:21:37;25.73;;;9.13;;
8482;SDS011;4278;42.668;23.312;2023-02-11T03:24:06;26.03;;;9.37;;
8482;SDS011;4278;42.668;23.312;2023-02-11T03:26:37;23.40;;;9.10;;
8482;SDS011;4278;42.668;23.312;2023-02-11T03:29:09;23.93;;;9.57;;
8482;SDS011;4278;42.668;23.312;2023-02-11T03:31:41;24.40;;;9.43;;
8482;SDS011;4278;42.668;23.312;2023-02-11T03:34:18;22.27;;;9.40;;
8482;SDS011;4278;42.668;23.312;2023-02-11T03:36:54;29.87;;;9.57;;
8482;SDS011;4278;42.668;23.312;2023-02-11T03:39:26;22.90;;;9.27;;
8482;SDS011;4278;42.668;23.312;2023-02-11T03:41:56;22.57;;;9.03;;
8482;SDS011;4278;42.668;23.312;2023-02-11T03:44:29;24.47;;;9.37;;
8482;SDS011;4278;42.668;23.312;2023-02-11T03:47:00;22.87;;;8.33;;
8482;SDS011;4278;42.668;23.312;2023-02-11T03:49:31;23.60;;;8.83;;
8482;SDS011;4278;42.668;23.312;2023-02-11T03:52:00;20.53;;;8.90;;
8482;SDS011;4278;42.668;23.312;2023-02-11T03:54:29;28.30;;;10.03;;
8482;SDS011;4278;42.668;23.312;2023-02-11T03:56:57;24.27;;;9.53;;
8482;SDS011;4278;42.668;23.312;2023-02-11T03:59:26;30.83;;;9.70;;
8482;SDS011;4278;42.668;23.312;2023-02-11T04:01:53;26.27;;;9.57;;
8482;SDS011;4278;42.668;23.312;2023-02-11T04:04:21;26.57;;;9.40;;
8482;SDS011;4278;42.668;23.312;2023-02-11T04:06:54;26.50;;;9.23;;
8482;SDS011;4278;42.668;23.312;2023-02-11T04:09:25;26.33;;;10.40;;
8482;SDS011;4278;42.668;23.312;2023-02-11T04:12:06;25.70;;;10.27;;
8482;SDS011;4278;42.668;23.312;2023-02-11T04:14:33;23.70;;;9.83;;
8482;SDS011;4278;42.668;23.312;2023-02-11T04:17:00;29.50;;;10.67;;
8482;SDS011;4278;42.668;23.312;2023-02-11T04:19:27;28.10;;;9.53;;
8482;SDS011;4278;42.668;23.312;2023-02-11T04:21:56;26.23;;;9.73;;
8482;SDS011;4278;42.668;23.312;2023-02-11T04:24:23;26.17;;;10.67;;
8482;SDS011;4278;42.668;23.312;2023-02-11T04:26:49;26.63;;;9.43;;
8482;SDS011;4278;42.668;23.312;2023-02-11T04:29:16;28.07;;;10.37;;
8482;SDS011;4278;42.668;23.312;2023-02-11T04:31:44;33.70;;;10.67;;
8482;SDS011;4278;42.668;23.312;2023-02-11T04:34:11;30.67;;;9.57;;
8482;SDS011;4278;42.668;23.312;2023-02-11T04:36:38;26.83;;;9.67;;
8482;SDS011;4278;42.668;23.312;2023-02-11T04:39:06;29.13;;;10.70;;
8482;SDS011;4278;42.668;23.312;2023-02-11T04:41:33;22.73;;;9.63;;
8482;SDS011;4278;42.668;23.312;2023-02-11T04:44:00;27.07;;;11.03;;
8482;SDS011;4278;42.668;23.312;2023-02-11T04:46:27;21.80;;;10.00;;
8482;SDS011;4278;42.668;23.312;2023-02-11T04:48:54;24.87;;;9.77;;
8482;SDS011;4278;42.668;23.312;2023-02-11T04:51:22;20.33;;;8.97;;
8482;SDS011;4278;42.668;23.312;2023-02-11T04:53:49;25.10;;;10.60;;
8482;SDS011;4278;42.668;23.312;2023-02-11T04:56:19;29.40;;;11.97;;
8482;SDS011;4278;42.668;23.312;2023-02-11T04:58:53;29.80;;;10.60;;
8482;SDS011;4278;42.668;23.312;2023-02-11T05:01:46;25.67;;;9.80;;
8482;SDS011;4278;42.668;23.312;2023-02-11T05:04:23;24.13;;;9.50;;
8482;SDS011;4278;42.668;23.312;2023-02-11T05:07:15;27.47;;;10.47;;
8482;SDS011;4278;42.668;23.312;2023-02-11T05:09:48;27.90;;;9.50;;
8482;SDS011;4278;42.668;23.312;2023-02-11T05:12:16;28.43;;;10.33;;
8482;SDS011;4278;42.668;23.312;2023-02-11T05:14:43;25.60;;;10.07;;
8482;SDS011;4278;42.668;23.312;2023-02-11T05:17:10;31.23;;;10.87;;
8482;SDS011;4278;42.668;23.312;2023-02-11T05:19:37;27.17;;;9.53;;
8482;SDS011;4278;42.668;23.312;2023-02-11T05:22:03;26.20;;;10.27;;
8482;SDS011;4278;42.668;23.312;2023-02-11T05:24:30;31.43;;;11.30;;
8482;SDS011;4278;42.668;23.312;2023-02-11T05:26:58;39.57;;;13.83;;
8482;SDS011;4278;42.668;23.312;2023-02-11T05:29:26;26.77;;;11.00;;
8482;SDS011;4278;42.668;23.312;2023-02-11T05:31:53;28.67;;;10.53;;
8482;SDS011;4278;42.668;23.312;2023-02-11T05:34:20;28.97;;;11.33;;
8482;SDS011;4278;42.668;23.312;2023-02-11T05:36:47;32.30;;;12.70;;
8482;SDS011;4278;42.668;23.312;2023-02-11T05:39:14;29.87;;;12.43;;
8482;SDS011;4278;42.668;23.312;2023-02-11T05:41:40;25.80;;;11.60;;
8482;SDS011;4278;42.668;23.312;2023-02-11T05:44:07;28.93;;;11.97;;
8482;SDS011;4278;42.668;23.312;2023-02-11T05:46:36;26.43;;;10.63;;
8482;SDS011;4278;42.668;23.312;2023-02-11T05:49:03;31.83;;;11.77;;
8482;SDS011;4278;42.668;23.312;2023-02-11T05:51:30;31.10;;;11.83;;
8482;SDS011;4278;42.668;23.312;2023-02-11T05:53:56;33.90;;;12.40;;
8482;SDS011;4278;42.668;23.312;2023-02-11T05:56:23;31.67;;;11.63;;
8482;SDS011;4278;42.668;23.312;2023-02-11T05:58:50;27.53;;;11.93;;
8482;SDS011;4278;42.668;23.312;2023-02-11T06:01:20;31.87;;;11.90;;
8482;SDS011;4278;42.668;23.312;2023-02-11T06:03:48;31.57;;;12.20;;
8482;SDS011;4278;42.668;23.312;2023-02-11T06:06:15;31.83;;;12.80;;
8482;SDS011;4278;42.668;23.312;2023-02-11T06:08:42;30.97;;;13.03;;
8482;SDS011;4278;42.668;23.312;2023-02-11T06:11:09;37.33;;;13.80;;
8482;SDS011;4278;42.668;23.312;2023-02-11T06:13:35;30.73;;;13.57;;
8482;SDS011;4278;42.668;23.312;2023-02-11T06:16:02;38.47;;;15.20;;
8482;SDS011;4278;42.668;23.312;2023-02-11T06:18:29;29.47;;;12.57;;
8482;SDS011;4278;42.668;23.312;2023-02-11T06:20:59;32.67;;;12.70;;
8482;SDS011;4278;42.668;23.312;2023-02-11T06:23:26;37.83;;;13.67;;
8482;SDS011;4278;42.668;23.312;2023-02-11T06:25:52;36.37;;;13.97;;
8482;SDS011;4278;42.668;23.312;2023-02-11T06:28:22;37.73;;;14.40;;
8482;SDS011;4278;42.668;23.312;2023-02-11T06:30:48;39.87;;;13.33;;
8482;SDS011;4278;42.668;23.312;2023-02-11T06:33:15;31.37;;;13.50;;
8482;SDS011;4278;42.668;23.312;2023-02-11T06:35:42;35.40;;;14.20;;
8482;SDS011;4278;42.668;23.312;2023-02-11T06:38:10;38.23;;;13.67;;
8482;SDS011;4278;42.668;23.312;2023-02-11T06:40:37;37.87;;;14.37;;
8482;SDS011;4278;42.668;23.312;2023-02-11T06:43:03;37.03;;;13.67;;
8482;SDS011;4278;42.668;23.312;2023-02-11T06:45:31;34.17;;;14.10;;
8482;SDS011;4278;42.668;23.312;2023-02-11T06:47:58;43.70;;;14.37;;
8482;SDS011;4278;42.668;23.312;2023-02-11T06:50:24;31.67;;;14.87;;
8482;SDS011;4278;42.668;23.312;2023-02-11T06:52:51;47.58;;;16.67;;
8482;SDS011;4278;42.668;23.312;2023-02-11T06:55:20;40.27;;;14.53;;
8482;SDS011;4278;42.668;23.312;2023-02-11T06:57:46;39.03;;;14.50;;
8482;SDS011;4278;42.668;23.312;2023-02-11T07:00:13;47.00;;;15.07;;
8482;SDS011;4278;42.668;23.312;2023-02-11T07:02:42;50.00;;;15.53;;
8482;SDS011;4278;42.668;23.312;2023-02-11T07:05:09;40.53;;;14.47;;
8482;SDS011;4278;42.668;23.312;2023-02-11T07:07:36;45.83;;;15.90;;
8482;SDS011;4278;42.668;23.312;2023-02-11T07:10:04;46.83;;;15.17;;
8482;SDS011;4278;42.668;23.312;2023-02-11T07:12:33;65.90;;;18.83;;
8482;SDS011;4278;42.668;23.312;2023-02-11T07:15:01;44.90;;;15.77;;
8482;SDS011;4278;42.668;23.312;2023-02-11T07:17:31;48.07;;;15.83;;
8482;SDS011;4278;42.668;23.312;2023-02-11T07:19:59;45.93;;;15.47;;
8482;SDS011;4278;42.668;23.312;2023-02-11T07:22:26;53.47;;;15.70;;
8482;SDS011;4278;42.668;23.312;2023-02-11T07:24:56;39.07;;;12.40;;
8482;SDS011;4278;42.668;23.312;2023-02-11T07:27:23;43.23;;;15.47;;
8482;SDS011;4278;42.668;23.312;2023-02-11T07:29:51;39.33;;;14.30;;
8482;SDS011;4278;42.668;23.312;2023-02-11T07:32:18;33.67;;;14.47;;
8482;SDS011;4278;42.668;23.312;2023-02-11T07:34:45;43.67;;;13.93;;
8482;SDS011;4278;42.668;23.312;2023-02-11T07:37:13;39.90;;;13.97;;
8482;SDS011;4278;42.668;23.312;2023-02-11T07:39:40;41.17;;;14.07;;
8482;SDS011;4278;42.668;23.312;2023-02-11T07:42:07;40.80;;;15.03;;
8482;SDS011;4278;42.668;23.312;2023-02-11T07:44:34;39.43;;;13.40;;
8482;SDS011;4278;42.668;23.312;2023-02-11T07:47:02;37.97;;;12.57;;
8482;SDS011;4278;42.668;23.312;2023-02-11T07:49:29;29.23;;;11.30;;
8482;SDS011;4278;42.668;23.312;2023-02-11T07:51:56;44.97;;;13.87;;
8482;SDS011;4278;42.668;23.312;2023-02-11T07:54:23;37.20;;;12.17;;
8482;SDS011;4278;42.668;23.312;2023-02-11T07:56:52;36.87;;;12.93;;
8482;SDS011;4278;42.668;23.312;2023-02-11T07:59:19;39.83;;;13.07;;
8482;SDS011;4278;42.668;23.312;2023-02-11T08:01:49;39.10;;;11.97;;
8482;SDS011;4278;42.668;23.312;2023-02-11T08:04:18;44.67;;;13.83;;
8482;SDS011;4278;42.668;23.312;2023-02-11T08:06:45;26.63;;;8.97;;
8482;SDS011;4278;42.668;23.312;2023-02-11T08:09:12;24.53;;;7.57;;
8482;SDS011;4278;42.668;23.312;2023-02-11T08:11:41;32.27;;;10.53;;
8482;SDS011;4278;42.668;23.312;2023-02-11T08:14:08;27.67;;;10.70;;
8482;SDS011;4278;42.668;23.312;2023-02-11T08:16:35;33.57;;;11.93;;
8482;SDS011;4278;42.668;23.312;2023-02-11T08:19:04;35.50;;;9.43;;
8482;SDS011;4278;42.668;23.312;2023-02-11T08:21:33;39.17;;;12.83;;
8482;SDS011;4278;42.668;23.312;2023-02-11T08:24:00;29.53;;;10.70;;
8482;SDS011;4278;42.668;23.312;2023-02-11T08:26:28;37.37;;;13.03;;
8482;SDS011;4278;42.668;23.312;2023-02-11T08:28:58;34.60;;;12.03;;
8482;SDS011;4278;42.668;23.312;2023-02-11T08:31:28;34.63;;;11.57;;
8482;SDS011;4278;42.668;23.312;2023-02-11T08:33:57;36.17;;;11.13;;
8482;SDS011;4278;42.668;23.312;2023-02-11T08:36:27;45.03;;;14.00;;
8482;SDS011;4278;42.668;23.312;2023-02-11T08:38:57;35.60;;;10.03;;
8482;SDS011;4278;42.668;23.312;2023-02-11T08:41:27;34.57;;;12.63;;
8482;SDS011;4278;42.668;23.312;2023-02-11T08:43:54;35.53;;;12.23;;
8482;SDS011;4278;42.668;23.312;2023-02-11T08:46:21;30.90;;;12.07;;
8482;SDS011;4278;42.668;23.312;2023-02-11T08:48:48;43.70;;;13.63;;
8482;SDS011;4278;42.668;23.312;2023-02-11T08:51:16;38.13;;;14.33;;
8482;SDS011;4278;42.668;23.312;2023-02-11T08:53:45;46.30;;;14.07;;
8482;SDS011;4278;42.668;23.312;2023-02-11T08:56:14;60.37;;;16.00;;
8482;SDS011;4278;42.668;23.312;2023-02-11T08:58:42;45.13;;;14.80;;
8482;SDS011;4278;42.668;23.312;2023-02-11T09:01:09;41.90;;;14.73;;
8482;SDS011;4278;42.668;23.312;2023-02-11T09:03:37;37.20;;;12.63;;
8482;SDS011;4278;42.668;23.312;2023-02-11T09:06:06;43.73;;;13.40;;
8482;SDS011;4278;42.668;23.312;2023-02-11T09:08:34;42.43;;;14.47;;
8482;SDS011;4278;42.668;23.312;2023-02-11T09:11:01;35.40;;;13.03;;
8482;SDS011;4278;42.668;23.312;2023-02-11T09:13:30;32.37;;;11.70;;
8482;SDS011;4278;42.668;23.312;2023-02-11T09:15:58;37.27;;;11.97;;
8482;SDS011;4278;42.668;23.312;2023-02-11T09:18:26;47.73;;;15.23;;
8482;SDS011;4278;42.668;23.312;2023-02-11T09:21:00;36.53;;;13.33;;
8482;SDS011;4278;42.668;23.312;2023-02-11T09:23:28;35.07;;;12.57;;
8482;SDS011;4278;42.668;23.312;2023-02-11T09:25:55;33.30;;;11.73;;
8482;SDS011;4278;42.668;23.312;2023-02-11T09:28:21;40.83;;;13.77;;
8482;SDS011;4278;42.668;23.312;2023-02-11T09:30:50;40.70;;;13.17;;
8482;SDS011;4278;42.668;23.312;2023-02-11T09:33:17;34.27;;;11.80;;
8482;SDS011;4278;42.668;23.312;2023-02-11T09:35:44;31.70;;;11.43;;
8482;SDS011;4278;42.668;23.312;2023-02-11T09:38:11;32.93;;;12.27;;
8482;SDS011;4278;42.668;23.312;2023-02-11T09:40:40;37.47;;;12.83;;
8482;SDS011;4278;42.668;23.312;2023-02-11T09:43:09;37.57;;;13.10;;
8482;SDS011;4278;42.668;23.312;2023-02-11T09:45:40;45.37;;;12.73;;
8482;SDS011;4278;42.668;23.312;2023-02-11T09:48:12;28.73;;;8.73;;
8482;SDS011;4278;42.668;23.312;2023-02-11T09:50:41;36.30;;;12.13;;
8482;SDS011;4278;42.668;23.312;2023-02-11T09:53:13;28.77;;;10.60;;
8482;SDS011;4278;42.668;23.312;2023-02-11T09:55:46;32.43;;;11.70;;
8482;SDS011;4278;42.668;23.312;2023-02-11T09:58:21;31.97;;;10.73;;
8482;SDS011;4278;42.668;23.312;2023-02-11T10:00:52;50.10;;;14.10;;
8482;SDS011;4278;42.668;23.312;2023-02-11T10:03:37;48.10;;;13.87;;
8482;SDS011;4278;42.668;23.312;2023-02-11T10:06:25;41.53;;;12.47;;
8482;SDS011;4278;42.668;23.312;2023-02-11T10:09:10;48.57;;;13.87;;
8482;SDS011;4278;42.668;23.312;2023-02-11T10:11:55;36.93;;;11.27;;
8482;SDS011;4278;42.668;23.312;2023-02-11T10:14:47;33.30;;;10.80;;
8482;SDS011;4278;42.668;23.312;2023-02-11T10:17:28;36.73;;;11.13;;
8482;SDS011;4278;42.668;23.312;2023-02-11T10:20:10;43.73;;;12.17;;
8482;SDS011;4278;42.668;23.312;2023-02-11T10:22:45;38.83;;;10.73;;
8482;SDS011;4278;42.668;23.312;2023-02-11T10:25:19;41.43;;;11.00;;
8482;SDS011;4278;42.668;23.312;2023-02-11T10:27:48;37.10;;;10.87;;
8482;SDS011;4278;42.668;23.312;2023-02-11T10:30:21;31.57;;;10.73;;
8482;SDS011;4278;42.668;23.312;2023-02-11T10:32:54;39.97;;;11.43;;
8482;SDS011;4278;42.668;23.312;2023-02-11T10:35:29;42.00;;;11.93;;
8482;SDS011;4278;42.668;23.312;2023-02-11T10:37:57;36.73;;;10.70;;
8482;SDS011;4278;42.668;23.312;2023-02-11T10:40:26;31.80;;;10.93;;
8482;SDS011;4278;42.668;23.312;2023-02-11T10:42:55;33.57;;;10.77;;
8482;SDS011;4278;42.668;23.312;2023-02-11T10:45:27;39.70;;;10.50;;
8482;SDS011;4278;42.668;23.312;2023-02-11T10:47:57;38.87;;;11.17;;
8482;SDS011;4278;42.668;23.312;2023-02-11T10:50:25;37.53;;;10.80;;
8482;SDS011;4278;42.668;23.312;2023-02-11T10:52:56;29.73;;;9.57;;
8482;SDS011;4278;42.668;23.312;2023-02-11T10:55:38;36.90;;;11.73;;
8482;SDS011;4278;42.668;23.312;2023-02-11T10:58:20;28.80;;;10.13;;
8482;SDS011;4278;42.668;23.312;2023-02-11T11:00:50;39.50;;;11.87;;
8482;SDS011;4278;42.668;23.312;2023-02-11T11:03:20;31.93;;;10.90;;
8482;SDS011;4278;42.668;23.312;2023-02-11T11:05:48;22.37;;;9.57;;
8482;SDS011;4278;42.668;23.312;2023-02-11T11:08:18;28.23;;;11.40;;
8482;SDS011;4278;42.668;23.312;2023-02-11T11:10:46;29.53;;;12.30;;
8482;SDS011;4278;42.668;23.312;2023-02-11T11:13:28;26.65;;;11.45;;
8482;SDS011;4278;42.668;23.312;2023-02-11T11:18:46;25.52;;;11.02;;
8482;SDS011;4278;42.668;23.312;2023-02-11T11:21:17;23.00;;;10.20;;
8482;SDS011;4278;42.668;23.312;2023-02-11T11:24:00;32.33;;;11.60;;
8482;SDS011;4278;42.668;23.312;2023-02-11T11:26:49;30.23;;;11.35;;
8482;SDS011;4278;42.668;23.312;2023-02-11T11:29:23;23.38;;;9.68;;
8482;SDS011;4278;42.668;23.312;2023-02-11T11:32:35;25.88;;;10.73;;
8482;SDS011;4278;42.668;23.312;2023-02-11T11:35:20;39.17;;;12.15;;
8482;SDS011;4278;42.668;23.312;2023-02-11T11:37:54;32.15;;;13.63;;
8482;SDS011;4278;42.668;23.312;2023-02-11T11:40:29;28.65;;;11.50;;
8482;SDS011;4278;42.668;23.312;2023-02-11T11:43:01;25.20;;;10.45;;
8482;SDS011;4278;42.668;23.312;2023-02-11T11:45:31;28.25;;;11.90;;
8482;SDS011;4278;42.668;23.312;2023-02-11T11:47:59;22.73;;;11.07;;
8482;SDS011;4278;42.668;23.312;2023-02-11T11:50:32;33.20;;;12.43;;
8482;SDS011;4278;42.668;23.312;2023-02-11T11:53:03;23.33;;;9.70;;
8482;SDS011;4278;42.668;23.312;2023-02-11T11:55:36;22.25;;;9.52;;
8482;SDS011;4278;42.668;23.312;2023-02-11T11:58:09;22.05;;;9.60;;
8482;SDS011;4278;42.668;23.312;2023-02-11T12:00:42;23.58;;;10.07;;
8482;SDS011;4278;42.668;23.312;2023-02-11T12:03:31;17.65;;;8.73;;
8482;SDS011;4278;42.668;23.312;2023-02-11T12:06:24;23.00;;;9.50;;
8482;SDS011;4278;42.668;23.312;2023-02-11T12:08:59;33.53;;;11.68;;
8482;SDS011;4278;42.668;23.312;2023-02-11T12:11:37;25.88;;;10.73;;
8482;SDS011;4278;42.668;23.312;2023-02-11T12:14:23;21.85;;;9.68;;
8482;SDS011;4278;42.668;23.312;2023-02-11T12:17:02;28.17;;;11.38;;
8482;SDS011;4278;42.668;23.312;2023-02-11T12:22:34;36.28;;;10.82;;
8482;SDS011;4278;42.668;23.312;2023-02-11T12:25:19;30.92;;;8.98;;
8482;SDS011;4278;42.668;23.312;2023-02-11T12:27:55;22.65;;;9.75;;
8482;SDS011;4278;42.668;23.312;2023-02-11T12:30:40;22.23;;;8.75;;
8482;SDS011;4278;42.668;23.312;2023-02-11T12:33:20;19.73;;;8.98;;
8482;SDS011;4278;42.668;23.312;2023-02-11T12:36:00;16.90;;;8.50;;
8482;SDS011;4278;42.668;23.312;2023-02-11T12:38:42;24.70;;;11.05;;
8482;SDS011;4278;42.668;23.312;2023-02-11T12:41:31;25.10;;;10.00;;
8482;SDS011;4278;42.668;23.312;2023-02-11T12:44:42;35.03;;;11.27;;
8482;SDS011;4278;42.668;23.312;2023-02-11T12:47:23;20.67;;;8.87;;
8482;SDS011;4278;42.668;23.312;2023-02-11T12:50:03;26.40;;;9.53;;
8482;SDS011;4278;42.668;23.312;2023-02-11T12:52:42;26.57;;;9.07;;
8482;SDS011;4278;42.668;23.312;2023-02-11T12:55:21;25.87;;;8.80;;
8482;SDS011;4278;42.668;23.312;2023-02-11T12:57:51;24.30;;;8.40;;
8482;SDS011;4278;42.668;23.312;2023-02-11T13:00:23;20.17;;;8.40;;
8482;SDS011;4278;42.668;23.312;2023-02-11T13:02:55;24.67;;;9.20;;
8482;SDS011;4278;42.668;23.312;2023-02-11T13:05:30;23.97;;;9.37;;
8482;SDS011;4278;42.668;23.312;2023-02-11T13:08:03;25.43;;;9.27;;
8482;SDS011;4278;42.668;23.312;2023-02-11T13:10:36;34.97;;;10.80;;
8482;SDS011;4278;42.668;23.312;2023-02-11T13:13:10;30.23;;;10.07;;
8482;SDS011;4278;42.668;23.312;2023-02-11T13:15:47;24.93;;;8.83;;
8482;SDS011;4278;42.668;23.312;2023-02-11T13:18:20;19.77;;;7.50;;
8482;SDS011;4278;42.668;23.312;2023-02-11T13:20:55;22.10;;;8.27;;
8482;SDS011;4278;42.668;23.312;2023-02-11T13:23:29;20.60;;;7.87;;
8482;SDS011;4278;42.668;23.312;2023-02-11T13:26:04;30.13;;;9.60;;
8482;SDS011;4278;42.668;23.312;2023-02-11T13:28:40;25.27;;;9.03;;
8482;SDS011;4278;42.668;23.312;2023-02-11T13:31:14;24.27;;;8.47;;
8482;SDS011;4278;42.668;23.312;2023-02-11T13:33:44;21.13;;;8.77;;
8482;SDS011;4278;42.668;23.312;2023-02-11T13:36:23;22.77;;;8.87;;
8482;SDS011;4278;42.668;23.312;2023-02-11T13:39:01;23.17;;;8.27;;
8482;SDS011;4278;42.668;23.312;2023-02-11T13:41:31;26.67;;;9.33;;
8482;SDS011;4278;42.668;23.312;2023-02-11T13:46:50;24.13;;;8.40;;
8482;SDS011;4278;42.668;23.312;2023-02-11T13:49:22;23.47;;;8.40;;
8482;SDS011;4278;42.668;23.312;2023-02-11T13:51:51;22.43;;;8.10;;
8482;SDS011;4278;42.668;23.312;2023-02-11T13:54:27;32.43;;;9.87;;
8482;SDS011;4278;42.668;23.312;2023-02-11T13:59:54;24.73;;;8.87;;
8482;SDS011;4278;42.668;23.312;2023-02-11T14:02:25;25.03;;;9.03;;
8482;SDS011;4278;42.668;23.312;2023-02-11T14:05:19;22.43;;;8.00;;
8482;SDS011;4278;42.668;23.312;2023-02-11T14:08:16;17.70;;;7.43;;
8482;SDS011;4278;42.668;23.312;2023-02-11T14:11:06;24.87;;;8.67;;
8482;SDS011;4278;42.668;23.312;2023-02-11T14:16:29;29.00;;;10.00;;
8482;SDS011;4278;42.668;23.312;2023-02-11T14:18:58;22.27;;;8.20;;
8482;SDS011;4278;42.668;23.312;2023-02-11T14:21:31;29.10;;;9.97;;
8482;SDS011;4278;42.668;23.312;2023-02-11T14:27:00;31.70;;;10.20;;
8482;SDS011;4278;42.668;23.312;2023-02-11T14:29:34;29.20;;;9.50;;
8482;SDS011;4278;42.668;23.312;2023-02-11T14:32:09;35.70;;;10.90;;
8482;SDS011;4278;42.668;23.312;2023-02-11T14:34:52;30.13;;;10.47;;
8482;SDS011;4278;42.668;23.312;2023-02-11T14:37:29;31.30;;;10.00;;
8482;SDS011;4278;42.668;23.312;2023-02-11T14:40:15;26.50;;;10.03;;
8482;SDS011;4278;42.668;23.312;2023-02-11T14:42:49;24.07;;;9.60;;
8482;SDS011;4278;42.668;23.312;2023-02-11T14:45:19;30.27;;;10.53;;
8482;SDS011;4278;42.668;23.312;2023-02-11T14:47:50;29.77;;;10.17;;
8482;SDS011;4278;42.668;23.312;2023-02-11T14:50:24;26.20;;;9.73;;
8482;SDS011;4278;42.668;23.312;2023-02-11T14:52:57;35.40;;;10.97;;
8482;SDS011;4278;42.668;23.312;2023-02-11T14:55:27;25.97;;;9.10;;
8482;SDS011;4278;42.668;23.312;2023-02-11T14:58:04;27.27;;;10.03;;
8482;SDS011;4278;42.668;23.312;2023-02-11T15:00:45;28.03;;;10.40;;
8482;SDS011;4278;42.668;23.312;2023-02-11T15:03:23;24.20;;;9.40;;
8482;SDS011;4278;42.668;23.312;2023-02-11T15:05:54;30.57;;;9.67;;
8482;SDS011;4278;42.668;23.312;2023-02-11T15:08:26;31.10;;;10.53;;
8482;SDS011;4278;42.668;23.312;2023-02-11T15:11:07;34.13;;;10.53;;
8482;SDS011;4278;42.668;23.312;2023-02-11T15:13:42;27.43;;;9.50;;
8482;SDS011;4278;42.668;23.312;2023-02-11T15:16:14;40.33;;;11.37;;
8482;SDS011;4278;42.668;23.312;2023-02-11T15:18:44;34.10;;;10.83;;
8482;SDS011;4278;42.668;23.312;2023-02-11T15:31:15;45.37;;;11.40;;
8482;SDS011;4278;42.668;23.312;2023-02-11T15:34:36;49.87;;;12.83;;
8482;SDS011;4278;42.668;23.312;2023-02-11T15:44:28;31.37;;;10.33;;
